sensor_id;sensor_type;location;lat;lon;timestamp;temperature;humidity
26707;DHT22;14319;49.422;10.934;2023-02-01T00:01:54;4.70;85.30
26707;DHT22;14319;49.422;10.934;2023-02-01T00:03:54;4.60;85.50
26707;DHT22;14319;49.422;10.934;2023-02-01T00:05:55;4.70;85.40
26707;DHT22;14319;49.422;10.934;2023-02-01T00:07:57;4.70;85.50
26707;DHT22;14319;49.422;10.934;2023-02-01T00:09:57;4.70;85.50
26707;DHT22;14319;49.422;10.934;2023-02-01T00:12:01;4.80;85.30
26707;DHT22;14319;49.422;10.934;2023-02-01T00:14:03;4.90;85.10
26707;DHT22;14319;49.422;10.934;2023-02-01T00:16:05;4.90;84.80
26707;DHT22;14319;49.422;10.934;2023-02-01T00:18:05;4.90;84.70
26707;DHT22;14319;49.422;10.934;2023-02-01T00:20:06;4.80;85.00
26707;DHT22;14319;49.422;10.934;2023-02-01T00:22:07;4.80;84.90
26707;DHT22;14319;49.422;10.934;2023-02-01T00:24:08;4.90;84.90
26707;DHT22;14319;49.422;10.934;2023-02-01T00:26:14;4.80;84.60
26707;DHT22;14319;49.422;10.934;2023-02-01T00:28:15;4.90;85.10
26707;DHT22;14319;49.422;10.934;2023-02-01T00:30:16;4.80;84.70
26707;DHT22;14319;49.422;10.934;2023-02-01T00:32:17;4.90;84.90
26707;DHT22;14319;49.422;10.934;2023-02-01T00:34:17;4.80;84.80
26707;DHT22;14319;49.422;10.934;2023-02-01T00:36:18;4.80;84.90
26707;DHT22;14319;49.422;10.934;2023-02-01T00:38:19;4.80;84.90
26707;DHT22;14319;49.422;10.934;2023-02-01T00:40:19;4.80;84.60
26707;DHT22;14319;49.422;10.934;2023-02-01T00:42:20;4.80;84.60
26707;DHT22;14319;49.422;10.934;2023-02-01T00:44:20;4.80;84.40
26707;DHT22;14319;49.422;10.934;2023-02-01T00:46:20;4.80;84.50
26707;DHT22;14319;49.422;10.934;2023-02-01T00:48:21;4.80;85.20
26707;DHT22;14319;49.422;10.934;2023-02-01T00:50:22;4.80;85.00
26707;DHT22;14319;49.422;10.934;2023-02-01T00:52:22;4.80;85.30
26707;DHT22;14319;49.422;10.934;2023-02-01T00:54:23;4.80;85.10
26707;DHT22;14319;49.422;10.934;2023-02-01T00:56:23;4.90;85.00
26707;DHT22;14319;49.422;10.934;2023-02-01T00:58:24;4.80;84.70
26707;DHT22;14319;49.422;10.934;2023-02-01T01:00:26;4.90;84.60
26707;DHT22;14319;49.422;10.934;2023-02-01T01:02:26;4.90;84.50
26707;DHT22;14319;49.422;10.934;2023-02-01T01:04:27;4.90;84.80
26707;DHT22;14319;49.422;10.934;2023-02-01T01:06:31;4.90;84.80
26707;DHT22;14319;49.422;10.934;2023-02-01T01:08:32;4.90;85.10
26707;DHT22;14319;49.422;10.934;2023-02-01T01:10:33;4.90;85.20
26707;DHT22;14319;49.422;10.934;2023-02-01T01:12:34;4.90;84.60
26707;DHT22;14319;49.422;10.934;2023-02-01T01:14:34;4.90;85.60
26707;DHT22;14319;49.422;10.934;2023-02-01T01:16:35;4.90;85.40
26707;DHT22;14319;49.422;10.934;2023-02-01T01:18:36;5.00;85.10
26707;DHT22;14319;49.422;10.934;2023-02-01T01:20:37;5.00;84.70
26707;DHT22;14319;49.422;10.934;2023-02-01T01:22:38;5.00;84.90
26707;DHT22;14319;49.422;10.934;2023-02-01T01:24:38;5.00;85.00
26707;DHT22;14319;49.422;10.934;2023-02-01T01:26:39;5.00;85.30
26707;DHT22;14319;49.422;10.934;2023-02-01T01:28:40;5.00;85.90
26707;DHT22;14319;49.422;10.934;2023-02-01T01:30:40;5.00;85.80
26707;DHT22;14319;49.422;10.934;2023-02-01T01:32:41;5.00;85.60
26707;DHT22;14319;49.422;10.934;2023-02-01T01:34:41;5.00;85.50
26707;DHT22;14319;49.422;10.934;2023-02-01T01:36:42;5.00;86.00
26707;DHT22;14319;49.422;10.934;2023-02-01T01:38:42;4.90;86.20
26707;DHT22;14319;49.422;10.934;2023-02-01T01:40:46;4.90;86.40
26707;DHT22;14319;49.422;10.934;2023-02-01T01:42:47;4.80;86.50
26707;DHT22;14319;49.422;10.934;2023-02-01T01:44:56;4.70;86.90
26707;DHT22;14319;49.422;10.934;2023-02-01T01:46:57;4.70;87.10
26707;DHT22;14319;49.422;10.934;2023-02-01T01:51:07;4.80;86.60
26707;DHT22;14319;49.422;10.934;2023-02-01T01:53:09;4.80;86.30
26707;DHT22;14319;49.422;10.934;2023-02-01T01:55:13;4.80;86.30
26707;DHT22;14319;49.422;10.934;2023-02-01T01:57:14;4.80;85.80
26707;DHT22;14319;49.422;10.934;2023-02-01T01:59:15;4.80;85.90
26707;DHT22;14319;49.422;10.934;2023-02-01T02:01:16;4.90;85.60
26707;DHT22;14319;49.422;10.934;2023-02-01T02:05:48;4.80;85.40
26707;DHT22;14319;49.422;10.934;2023-02-01T02:07:50;4.80;85.70
26707;DHT22;14319;49.422;10.934;2023-02-01T02:09:51;4.70;85.50
26707;DHT22;14319;49.422;10.934;2023-02-01T02:11:52;4.80;85.50
26707;DHT22;14319;49.422;10.934;2023-02-01T02:13:53;4.80;85.20
26707;DHT22;14319;49.422;10.934;2023-02-01T02:18:19;4.80;85.40
26707;DHT22;14319;49.422;10.934;2023-02-01T02:20:30;4.90;85.10
26707;DHT22;14319;49.422;10.934;2023-02-01T02:27:03;4.90;85.00
26707;DHT22;14319;49.422;10.934;2023-02-01T02:35:45;4.80;85.60
26707;DHT22;14319;49.422;10.934;2023-02-01T02:37:52;4.70;86.40
26707;DHT22;14319;49.422;10.934;2023-02-01T02:39:58;4.80;86.50
26707;DHT22;14319;49.422;10.934;2023-02-01T02:42:13;4.90;86.70
26707;DHT22;14319;49.422;10.934;2023-02-01T02:44:44;4.90;86.70
26707;DHT22;14319;49.422;10.934;2023-02-01T02:47:06;4.80;86.90
26707;DHT22;14319;49.422;10.934;2023-02-01T02:49:47;4.80;86.80
26707;DHT22;14319;49.422;10.934;2023-02-01T02:52:12;4.80;86.40
26707;DHT22;14319;49.422;10.934;2023-02-01T02:54:33;4.60;86.70
26707;DHT22;14319;49.422;10.934;2023-02-01T02:56:48;4.60;87.00
26707;DHT22;14319;49.422;10.934;2023-02-01T02:59:08;4.70;87.30
26707;DHT22;14319;49.422;10.934;2023-02-01T03:01:30;4.80;86.80
26707;DHT22;14319;49.422;10.934;2023-02-01T03:03:52;4.80;86.70
26707;DHT22;14319;49.422;10.934;2023-02-01T03:06:12;4.80;86.40
26707;DHT22;14319;49.422;10.934;2023-02-01T03:08:16;4.80;86.60
26707;DHT22;14319;49.422;10.934;2023-02-01T03:10:22;4.70;87.30
26707;DHT22;14319;49.422;10.934;2023-02-01T03:12:24;4.70;87.80
26707;DHT22;14319;49.422;10.934;2023-02-01T03:14:44;4.70;88.10
26707;DHT22;14319;49.422;10.934;2023-02-01T03:16:48;4.70;88.00
26707;DHT22;14319;49.422;10.934;2023-02-01T03:18:51;4.70;88.00
26707;DHT22;14319;49.422;10.934;2023-02-01T03:20:53;4.70;88.20
26707;DHT22;14319;49.422;10.934;2023-02-01T03:22:54;4.70;88.10
26707;DHT22;14319;49.422;10.934;2023-02-01T03:24:56;4.70;88.00
26707;DHT22;14319;49.422;10.934;2023-02-01T03:27:01;4.70;88.00
26707;DHT22;14319;49.422;10.934;2023-02-01T03:29:08;4.70;87.80
26707;DHT22;14319;49.422;10.934;2023-02-01T03:31:16;4.60;87.30
26707;DHT22;14319;49.422;10.934;2023-02-01T03:33:20;4.60;88.20
26707;DHT22;14319;49.422;10.934;2023-02-01T03:35:24;4.60;87.90
26707;DHT22;14319;49.422;10.934;2023-02-01T03:37:26;4.60;87.90
26707;DHT22;14319;49.422;10.934;2023-02-01T03:39:32;4.80;87.80
26707;DHT22;14319;49.422;10.934;2023-02-01T03:41:41;4.80;87.50
26707;DHT22;14319;49.422;10.934;2023-02-01T03:43:54;4.80;87.40
26707;DHT22;14319;49.422;10.934;2023-02-01T03:45:57;4.80;87.50
26707;DHT22;14319;49.422;10.934;2023-02-01T03:48:00;4.80;87.30
26707;DHT22;14319;49.422;10.934;2023-02-01T03:50:03;4.80;87.50
26707;DHT22;14319;49.422;10.934;2023-02-01T03:52:05;4.70;87.30
26707;DHT22;14319;49.422;10.934;2023-02-01T03:54:08;4.80;86.70
26707;DHT22;14319;49.422;10.934;2023-02-01T03:56:11;4.80;86.90
26707;DHT22;14319;49.422;10.934;2023-02-01T03:58:13;4.90;86.50
26707;DHT22;14319;49.422;10.934;2023-02-01T04:00:18;4.80;86.00
26707;DHT22;14319;49.422;10.934;2023-02-01T04:02:19;4.80;86.50
26707;DHT22;14319;49.422;10.934;2023-02-01T04:04:20;4.80;86.30
26707;DHT22;14319;49.422;10.934;2023-02-01T04:06:24;4.70;86.20
26707;DHT22;14319;49.422;10.934;2023-02-01T04:08:25;4.80;86.50
26707;DHT22;14319;49.422;10.934;2023-02-01T04:10:26;4.80;86.80
26707;DHT22;14319;49.422;10.934;2023-02-01T04:12:27;4.80;86.20
26707;DHT22;14319;49.422;10.934;2023-02-01T04:14:27;4.90;86.20
26707;DHT22;14319;49.422;10.934;2023-02-01T04:16:28;4.90;86.00
26707;DHT22;14319;49.422;10.934;2023-02-01T04:18:28;4.90;86.10
26707;DHT22;14319;49.422;10.934;2023-02-01T04:20:29;4.90;86.10
26707;DHT22;14319;49.422;10.934;2023-02-01T04:22:29;4.90;86.00
26707;DHT22;14319;49.422;10.934;2023-02-01T04:24:30;4.80;85.90
26707;DHT22;14319;49.422;10.934;2023-02-01T04:26:30;4.80;86.30
26707;DHT22;14319;49.422;10.934;2023-02-01T04:28:31;4.90;86.20
26707;DHT22;14319;49.422;10.934;2023-02-01T04:30:31;4.90;85.40
26707;DHT22;14319;49.422;10.934;2023-02-01T04:32:32;4.90;85.50
26707;DHT22;14319;49.422;10.934;2023-02-01T04:34:33;4.90;85.00
26707;DHT22;14319;49.422;10.934;2023-02-01T04:36:33;4.90;85.10
26707;DHT22;14319;49.422;10.934;2023-02-01T04:38:34;4.80;85.30
26707;DHT22;14319;49.422;10.934;2023-02-01T04:40:34;4.80;85.40
26707;DHT22;14319;49.422;10.934;2023-02-01T04:42:37;4.70;85.60
26707;DHT22;14319;49.422;10.934;2023-02-01T04:44:38;4.70;87.30
26707;DHT22;14319;49.422;10.934;2023-02-01T04:46:42;4.70;88.00
26707;DHT22;14319;49.422;10.934;2023-02-01T04:48:42;4.60;87.50
26707;DHT22;14319;49.422;10.934;2023-02-01T04:50:43;4.50;89.00
26707;DHT22;14319;49.422;10.934;2023-02-01T04:52:46;4.50;90.00
26707;DHT22;14319;49.422;10.934;2023-02-01T04:54:46;4.50;90.20
26707;DHT22;14319;49.422;10.934;2023-02-01T04:56:47;4.60;89.70
26707;DHT22;14319;49.422;10.934;2023-02-01T04:58:47;4.50;90.90
26707;DHT22;14319;49.422;10.934;2023-02-01T05:00:48;4.50;91.10
26707;DHT22;14319;49.422;10.934;2023-02-01T05:02:49;4.40;91.70
26707;DHT22;14319;49.422;10.934;2023-02-01T05:04:50;4.40;92.00
26707;DHT22;14319;49.422;10.934;2023-02-01T05:06:50;4.50;91.60
26707;DHT22;14319;49.422;10.934;2023-02-01T05:08:51;4.40;91.40
26707;DHT22;14319;49.422;10.934;2023-02-01T05:10:51;4.30;91.90
26707;DHT22;14319;49.422;10.934;2023-02-01T05:12:52;4.30;92.40
26707;DHT22;14319;49.422;10.934;2023-02-01T05:15:11;4.30;92.70
26707;DHT22;14319;49.422;10.934;2023-02-01T05:17:11;4.30;92.80
26707;DHT22;14319;49.422;10.934;2023-02-01T05:19:12;4.20;92.80
26707;DHT22;14319;49.422;10.934;2023-02-01T05:21:12;4.30;92.90
26707;DHT22;14319;49.422;10.934;2023-02-01T05:23:13;4.30;92.60
26707;DHT22;14319;49.422;10.934;2023-02-01T05:25:13;4.20;93.50
26707;DHT22;14319;49.422;10.934;2023-02-01T05:27:14;4.20;93.10
26707;DHT22;14319;49.422;10.934;2023-02-01T05:29:15;4.10;94.10
26707;DHT22;14319;49.422;10.934;2023-02-01T05:31:15;4.10;94.40
26707;DHT22;14319;49.422;10.934;2023-02-01T05:33:16;4.10;95.40
26707;DHT22;14319;49.422;10.934;2023-02-01T05:35:16;4.10;97.30
26707;DHT22;14319;49.422;10.934;2023-02-01T05:37:17;4.10;96.80
26707;DHT22;14319;49.422;10.934;2023-02-01T05:39:17;4.10;95.30
26707;DHT22;14319;49.422;10.934;2023-02-01T05:41:19;4.00;96.00
26707;DHT22;14319;49.422;10.934;2023-02-01T05:43:19;4.00;96.60
26707;DHT22;14319;49.422;10.934;2023-02-01T05:45:20;4.00;97.10
26707;DHT22;14319;49.422;10.934;2023-02-01T05:47:20;4.10;97.20
26707;DHT22;14319;49.422;10.934;2023-02-01T05:49:21;4.10;97.40
26707;DHT22;14319;49.422;10.934;2023-02-01T05:51:21;4.10;96.80
26707;DHT22;14319;49.422;10.934;2023-02-01T05:53:22;4.20;95.70
26707;DHT22;14319;49.422;10.934;2023-02-01T05:55:22;4.20;95.20
26707;DHT22;14319;49.422;10.934;2023-02-01T05:57:23;4.20;95.60
26707;DHT22;14319;49.422;10.934;2023-02-01T05:59:24;4.20;96.00
26707;DHT22;14319;49.422;10.934;2023-02-01T06:01:24;4.10;95.50
26707;DHT22;14319;49.422;10.934;2023-02-01T06:03:25;4.10;95.10
26707;DHT22;14319;49.422;10.934;2023-02-01T06:05:25;4.10;95.00
26707;DHT22;14319;49.422;10.934;2023-02-01T06:07:26;4.00;94.80
26707;DHT22;14319;49.422;10.934;2023-02-01T06:09:26;3.90;94.20
26707;DHT22;14319;49.422;10.934;2023-02-01T06:11:28;3.90;95.40
26707;DHT22;14319;49.422;10.934;2023-02-01T06:13:29;4.00;94.70
26707;DHT22;14319;49.422;10.934;2023-02-01T06:15:30;4.10;94.20
26707;DHT22;14319;49.422;10.934;2023-02-01T06:17:30;4.10;94.10
26707;DHT22;14319;49.422;10.934;2023-02-01T06:19:34;4.10;93.20
26707;DHT22;14319;49.422;10.934;2023-02-01T06:21:35;4.00;92.60
26707;DHT22;14319;49.422;10.934;2023-02-01T06:23:35;4.00;93.10
26707;DHT22;14319;49.422;10.934;2023-02-01T06:25:36;4.00;93.60
26707;DHT22;14319;49.422;10.934;2023-02-01T06:27:37;4.10;93.00
26707;DHT22;14319;49.422;10.934;2023-02-01T06:29:38;4.10;93.20
26707;DHT22;14319;49.422;10.934;2023-02-01T06:31:39;4.10;93.20
26707;DHT22;14319;49.422;10.934;2023-02-01T06:33:40;4.00;92.60
26707;DHT22;14319;49.422;10.934;2023-02-01T06:35:43;4.00;92.80
26707;DHT22;14319;49.422;10.934;2023-02-01T06:37:47;4.00;93.20
26707;DHT22;14319;49.422;10.934;2023-02-01T06:39:47;4.00;92.80
26707;DHT22;14319;49.422;10.934;2023-02-01T06:41:48;4.10;92.60
26707;DHT22;14319;49.422;10.934;2023-02-01T06:43:49;4.20;92.00
26707;DHT22;14319;49.422;10.934;2023-02-01T06:45:49;4.10;92.00
26707;DHT22;14319;49.422;10.934;2023-02-01T06:47:50;4.20;91.70
26707;DHT22;14319;49.422;10.934;2023-02-01T06:49:51;4.10;91.30
26707;DHT22;14319;49.422;10.934;2023-02-01T06:51:51;4.20;92.00
26707;DHT22;14319;49.422;10.934;2023-02-01T06:53:52;4.20;91.90
26707;DHT22;14319;49.422;10.934;2023-02-01T06:55:53;4.10;92.20
26707;DHT22;14319;49.422;10.934;2023-02-01T06:57:54;4.20;91.80
26707;DHT22;14319;49.422;10.934;2023-02-01T06:59:55;4.10;91.30
26707;DHT22;14319;49.422;10.934;2023-02-01T07:01:55;4.20;91.70
26707;DHT22;14319;49.422;10.934;2023-02-01T07:03:56;4.30;91.40
26707;DHT22;14319;49.422;10.934;2023-02-01T07:05:56;4.30;91.30
26707;DHT22;14319;49.422;10.934;2023-02-01T07:07:59;4.20;91.20
26707;DHT22;14319;49.422;10.934;2023-02-01T07:09:59;4.10;92.00
26707;DHT22;14319;49.422;10.934;2023-02-01T07:12:00;4.10;91.30
26707;DHT22;14319;49.422;10.934;2023-02-01T07:14:00;4.10;91.50
26707;DHT22;14319;49.422;10.934;2023-02-01T07:16:01;4.20;92.00
26707;DHT22;14319;49.422;10.934;2023-02-01T07:18:03;4.10;91.80
26707;DHT22;14319;49.422;10.934;2023-02-01T07:20:03;4.10;91.70
26707;DHT22;14319;49.422;10.934;2023-02-01T07:22:04;4.20;92.10
26707;DHT22;14319;49.422;10.934;2023-02-01T07:24:05;4.20;92.40
26707;DHT22;14319;49.422;10.934;2023-02-01T07:26:06;4.20;92.30
26707;DHT22;14319;49.422;10.934;2023-02-01T07:28:07;4.30;92.30
26707;DHT22;14319;49.422;10.934;2023-02-01T07:30:08;4.30;92.20
26707;DHT22;14319;49.422;10.934;2023-02-01T07:32:08;4.40;91.40
26707;DHT22;14319;49.422;10.934;2023-02-01T07:34:09;4.40;92.00
26707;DHT22;14319;49.422;10.934;2023-02-01T07:36:13;4.40;91.80
26707;DHT22;14319;49.422;10.934;2023-02-01T07:38:14;4.40;91.10
26707;DHT22;14319;49.422;10.934;2023-02-01T07:40:15;4.40;91.30
26707;DHT22;14319;49.422;10.934;2023-02-01T07:42:15;4.40;91.80
26707;DHT22;14319;49.422;10.934;2023-02-01T07:44:16;4.50;91.20
26707;DHT22;14319;49.422;10.934;2023-02-01T07:46:19;4.50;90.30
26707;DHT22;14319;49.422;10.934;2023-02-01T07:48:20;4.40;90.50
26707;DHT22;14319;49.422;10.934;2023-02-01T07:50:21;4.40;90.20
26707;DHT22;14319;49.422;10.934;2023-02-01T07:52:21;4.50;90.40
26707;DHT22;14319;49.422;10.934;2023-02-01T07:54:22;4.50;90.00
26707;DHT22;14319;49.422;10.934;2023-02-01T07:56:22;4.50;90.40
26707;DHT22;14319;49.422;10.934;2023-02-01T07:58:23;4.60;90.00
26707;DHT22;14319;49.422;10.934;2023-02-01T08:00:24;4.50;89.70
26707;DHT22;14319;49.422;10.934;2023-02-01T08:02:43;4.50;89.10
26707;DHT22;14319;49.422;10.934;2023-02-01T08:04:44;4.50;89.40
26707;DHT22;14319;49.422;10.934;2023-02-01T08:06:44;4.60;88.70
26707;DHT22;14319;49.422;10.934;2023-02-01T08:08:45;4.50;89.40
26707;DHT22;14319;49.422;10.934;2023-02-01T08:10:47;4.50;89.70
26707;DHT22;14319;49.422;10.934;2023-02-01T08:12:47;4.50;88.90
26707;DHT22;14319;49.422;10.934;2023-02-01T08:14:49;4.50;88.70
26707;DHT22;14319;49.422;10.934;2023-02-01T08:16:49;4.60;89.00
26707;DHT22;14319;49.422;10.934;2023-02-01T08:18:50;4.50;89.40
26707;DHT22;14319;49.422;10.934;2023-02-01T08:20:51;4.50;89.00
26707;DHT22;14319;49.422;10.934;2023-02-01T08:22:51;4.50;88.30
26707;DHT22;14319;49.422;10.934;2023-02-01T08:24:52;4.50;88.80
26707;DHT22;14319;49.422;10.934;2023-02-01T08:27:01;4.60;88.80
26707;DHT22;14319;49.422;10.934;2023-02-01T08:29:03;4.60;89.10
26707;DHT22;14319;49.422;10.934;2023-02-01T08:31:05;4.60;88.80
26707;DHT22;14319;49.422;10.934;2023-02-01T08:33:06;4.70;88.60
26707;DHT22;14319;49.422;10.934;2023-02-01T08:35:07;4.60;88.50
26707;DHT22;14319;49.422;10.934;2023-02-01T08:37:08;4.70;88.60
26707;DHT22;14319;49.422;10.934;2023-02-01T08:39:09;4.80;88.70
26707;DHT22;14319;49.422;10.934;2023-02-01T08:41:14;4.70;87.80
26707;DHT22;14319;49.422;10.934;2023-02-01T08:43:14;4.70;88.20
26707;DHT22;14319;49.422;10.934;2023-02-01T08:45:15;4.70;88.10
26707;DHT22;14319;49.422;10.934;2023-02-01T08:47:15;4.70;87.70
26707;DHT22;14319;49.422;10.934;2023-02-01T08:49:16;4.80;88.40
26707;DHT22;14319;49.422;10.934;2023-02-01T08:51:17;4.90;87.00
26707;DHT22;14319;49.422;10.934;2023-02-01T08:53:18;4.80;88.00
26707;DHT22;14319;49.422;10.934;2023-02-01T08:55:19;4.90;87.70
26707;DHT22;14319;49.422;10.934;2023-02-01T08:57:19;4.90;87.70
26707;DHT22;14319;49.422;10.934;2023-02-01T08:59:20;5.00;87.20
26707;DHT22;14319;49.422;10.934;2023-02-01T09:01:20;5.10;86.90
26707;DHT22;14319;49.422;10.934;2023-02-01T09:03:21;5.10;87.10
26707;DHT22;14319;49.422;10.934;2023-02-01T09:05:22;5.10;86.90
26707;DHT22;14319;49.422;10.934;2023-02-01T09:07:26;5.10;87.20
26707;DHT22;14319;49.422;10.934;2023-02-01T09:09:27;5.10;87.80
26707;DHT22;14319;49.422;10.934;2023-02-01T09:11:28;5.00;89.40
26707;DHT22;14319;49.422;10.934;2023-02-01T09:13:28;4.90;89.50
26707;DHT22;14319;49.422;10.934;2023-02-01T09:15:28;4.70;90.40
26707;DHT22;14319;49.422;10.934;2023-02-01T09:17:29;4.60;90.40
26707;DHT22;14319;49.422;10.934;2023-02-01T09:19:29;4.50;91.50
26707;DHT22;14319;49.422;10.934;2023-02-01T09:21:30;4.40;92.20
26707;DHT22;14319;49.422;10.934;2023-02-01T09:23:30;4.40;92.80
26707;DHT22;14319;49.422;10.934;2023-02-01T09:25:31;4.30;93.60
26707;DHT22;14319;49.422;10.934;2023-02-01T09:27:31;4.40;94.30
26707;DHT22;14319;49.422;10.934;2023-02-01T09:29:32;4.40;93.10
26707;DHT22;14319;49.422;10.934;2023-02-01T09:31:32;3.90;97.40
26707;DHT22;14319;49.422;10.934;2023-02-01T09:33:33;3.70;99.90
26707;DHT22;14319;49.422;10.934;2023-02-01T09:35:33;3.70;99.90
26707;DHT22;14319;49.422;10.934;2023-02-01T09:37:34;3.50;99.90
26707;DHT22;14319;49.422;10.934;2023-02-01T09:39:34;3.20;99.90
26707;DHT22;14319;49.422;10.934;2023-02-01T09:41:43;2.90;99.90
26707;DHT22;14319;49.422;10.934;2023-02-01T09:43:48;2.90;99.90
26707;DHT22;14319;49.422;10.934;2023-02-01T09:45:55;2.90;99.90
26707;DHT22;14319;49.422;10.934;2023-02-01T09:48:00;2.90;99.90
26707;DHT22;14319;49.422;10.934;2023-02-01T09:50:09;3.00;99.90
26707;DHT22;14319;49.422;10.934;2023-02-01T09:52:11;3.10;99.90
26707;DHT22;14319;49.422;10.934;2023-02-01T09:54:17;3.10;99.90
26707;DHT22;14319;49.422;10.934;2023-02-01T09:56:20;3.20;99.90
26707;DHT22;14319;49.422;10.934;2023-02-01T09:58:22;3.40;99.90
26707;DHT22;14319;49.422;10.934;2023-02-01T10:00:29;3.50;99.90
26707;DHT22;14319;49.422;10.934;2023-02-01T10:02:34;3.70;99.90
26707;DHT22;14319;49.422;10.934;2023-02-01T10:04:36;4.10;99.90
26707;DHT22;14319;49.422;10.934;2023-02-01T10:11:12;4.50;97.40
26707;DHT22;14319;49.422;10.934;2023-02-01T10:13:27;4.60;97.60
26707;DHT22;14319;49.422;10.934;2023-02-01T10:15:41;4.60;95.80
26707;DHT22;14319;49.422;10.934;2023-02-01T10:20:29;4.70;95.20
26707;DHT22;14319;49.422;10.934;2023-02-01T10:22:10;4.60;95.30
26707;DHT22;14319;49.422;10.934;2023-02-01T10:24:24;4.70;93.70
26707;DHT22;14319;49.422;10.934;2023-02-01T10:26:28;4.60;92.00
26707;DHT22;14319;49.422;10.934;2023-02-01T10:28:30;4.70;92.90
26707;DHT22;14319;49.422;10.934;2023-02-01T10:30:39;4.80;92.60
26707;DHT22;14319;49.422;10.934;2023-02-01T10:32:42;4.80;92.10
26707;DHT22;14319;49.422;10.934;2023-02-01T10:34:43;4.70;91.30
26707;DHT22;14319;49.422;10.934;2023-02-01T10:38:54;4.80;91.10
26707;DHT22;14319;49.422;10.934;2023-02-01T10:41:01;4.80;89.20
26707;DHT22;14319;49.422;10.934;2023-02-01T10:43:02;4.90;91.00
26707;DHT22;14319;49.422;10.934;2023-02-01T10:45:03;5.00;90.90
26707;DHT22;14319;49.422;10.934;2023-02-01T10:47:13;5.00;89.20
26707;DHT22;14319;49.422;10.934;2023-02-01T10:49:22;5.00;90.40
26707;DHT22;14319;49.422;10.934;2023-02-01T10:51:26;5.00;90.30
26707;DHT22;14319;49.422;10.934;2023-02-01T10:55:40;5.00;90.50
26707;DHT22;14319;49.422;10.934;2023-02-01T10:57:41;5.10;90.30
26707;DHT22;14319;49.422;10.934;2023-02-01T10:59:42;5.10;87.70
26707;DHT22;14319;49.422;10.934;2023-02-01T11:01:42;5.10;88.20
26707;DHT22;14319;49.422;10.934;2023-02-01T11:03:57;5.10;88.50
26707;DHT22;14319;49.422;10.934;2023-02-01T11:05:58;5.20;87.60
26707;DHT22;14319;49.422;10.934;2023-02-01T11:07:59;5.20;87.10
26707;DHT22;14319;49.422;10.934;2023-02-01T11:10:00;5.30;86.30
26707;DHT22;14319;49.422;10.934;2023-02-01T11:12:02;5.40;87.40
26707;DHT22;14319;49.422;10.934;2023-02-01T11:14:12;5.40;85.10
26707;DHT22;14319;49.422;10.934;2023-02-01T11:16:14;5.30;84.60
26707;DHT22;14319;49.422;10.934;2023-02-01T11:18:17;5.30;83.10
26707;DHT22;14319;49.422;10.934;2023-02-01T11:20:20;5.30;81.90
26707;DHT22;14319;49.422;10.934;2023-02-01T11:22:21;5.30;83.60
26707;DHT22;14319;49.422;10.934;2023-02-01T11:24:25;5.30;83.00
26707;DHT22;14319;49.422;10.934;2023-02-01T11:26:27;5.20;84.40
26707;DHT22;14319;49.422;10.934;2023-02-01T11:28:31;5.20;84.40
26707;DHT22;14319;49.422;10.934;2023-02-01T11:30:34;5.20;83.20
26707;DHT22;14319;49.422;10.934;2023-02-01T11:32:36;5.20;84.30
26707;DHT22;14319;49.422;10.934;2023-02-01T11:34:41;5.10;83.70
26707;DHT22;14319;49.422;10.934;2023-02-01T11:36:42;5.20;81.50
26707;DHT22;14319;49.422;10.934;2023-02-01T11:38:46;5.10;82.10
26707;DHT22;14319;49.422;10.934;2023-02-01T11:40:47;5.10;83.40
26707;DHT22;14319;49.422;10.934;2023-02-01T11:47:27;5.20;83.60
26707;DHT22;14319;49.422;10.934;2023-02-01T11:49:28;5.30;85.20
26707;DHT22;14319;49.422;10.934;2023-02-01T11:53:40;5.30;82.20
26707;DHT22;14319;49.422;10.934;2023-02-01T11:57:58;5.40;82.90
26707;DHT22;14319;49.422;10.934;2023-02-01T12:00:13;5.50;80.80
26707;DHT22;14319;49.422;10.934;2023-02-01T12:02:22;5.50;80.90
26707;DHT22;14319;49.422;10.934;2023-02-01T12:04:37;5.60;80.50
26707;DHT22;14319;49.422;10.934;2023-02-01T12:06:47;5.70;81.10
26707;DHT22;14319;49.422;10.934;2023-02-01T12:23:41;5.50;81.40
26707;DHT22;14319;49.422;10.934;2023-02-01T12:28:07;5.50;80.00
26707;DHT22;14319;49.422;10.934;2023-02-01T12:39:06;5.70;79.70
26707;DHT22;14319;49.422;10.934;2023-02-01T12:41:14;5.60;78.20
26707;DHT22;14319;49.422;10.934;2023-02-01T12:43:22;5.70;80.20
26707;DHT22;14319;49.422;10.934;2023-02-01T12:45:31;5.70;78.80
26707;DHT22;14319;49.422;10.934;2023-02-01T12:47:35;5.70;79.40
26707;DHT22;14319;49.422;10.934;2023-02-01T12:49:41;5.80;80.00
26707;DHT22;14319;49.422;10.934;2023-02-01T12:51:43;5.70;79.20
26707;DHT22;14319;49.422;10.934;2023-02-01T12:55:52;5.80;80.40
26707;DHT22;14319;49.422;10.934;2023-02-01T12:57:55;5.70;80.60
26707;DHT22;14319;49.422;10.934;2023-02-01T13:04:59;5.30;83.00
26707;DHT22;14319;49.422;10.934;2023-02-01T13:07:14;5.30;85.10
26707;DHT22;14319;49.422;10.934;2023-02-01T13:11:28;5.40;84.20
26707;DHT22;14319;49.422;10.934;2023-02-01T13:13:39;5.30;83.00
26707;DHT22;14319;49.422;10.934;2023-02-01T13:15:43;5.20;82.60
26707;DHT22;14319;49.422;10.934;2023-02-01T13:17:46;5.20;82.90
26707;DHT22;14319;49.422;10.934;2023-02-01T13:19:53;5.20;81.10
26707;DHT22;14319;49.422;10.934;2023-02-01T13:21:57;5.30;82.40
26707;DHT22;14319;49.422;10.934;2023-02-01T13:23:59;5.30;80.70
26707;DHT22;14319;49.422;10.934;2023-02-01T13:26:00;5.40;80.60
26707;DHT22;14319;49.422;10.934;2023-02-01T13:28:02;5.50;80.70
26707;DHT22;14319;49.422;10.934;2023-02-01T13:32:16;5.40;80.90
26707;DHT22;14319;49.422;10.934;2023-02-01T13:41:51;5.30;81.90
26707;DHT22;14319;49.422;10.934;2023-02-01T13:43:32;5.40;82.00
26707;DHT22;14319;49.422;10.934;2023-02-01T13:45:33;5.40;81.70
26707;DHT22;14319;49.422;10.934;2023-02-01T13:47:38;5.40;82.40
26707;DHT22;14319;49.422;10.934;2023-02-01T13:49:39;5.60;82.10
26707;DHT22;14319;49.422;10.934;2023-02-01T13:51:42;5.40;80.70
26707;DHT22;14319;49.422;10.934;2023-02-01T13:53:47;5.50;80.70
26707;DHT22;14319;49.422;10.934;2023-02-01T13:55:58;5.60;81.20
26707;DHT22;14319;49.422;10.934;2023-02-01T14:04:50;5.50;80.10
26707;DHT22;14319;49.422;10.934;2023-02-01T14:06:51;5.50;80.60
26707;DHT22;14319;49.422;10.934;2023-02-01T14:09:13;5.50;81.10
26707;DHT22;14319;49.422;10.934;2023-02-01T14:11:30;5.60;81.10
26707;DHT22;14319;49.422;10.934;2023-02-01T14:13:35;5.70;79.80
26707;DHT22;14319;49.422;10.934;2023-02-01T14:15:36;5.60;79.00
26707;DHT22;14319;49.422;10.934;2023-02-01T14:17:36;5.60;78.80
26707;DHT22;14319;49.422;10.934;2023-02-01T14:19:37;5.70;79.90
26707;DHT22;14319;49.422;10.934;2023-02-01T14:21:48;5.70;79.00
26707;DHT22;14319;49.422;10.934;2023-02-01T14:26:02;5.70;79.70
26707;DHT22;14319;49.422;10.934;2023-02-01T14:28:10;5.70;79.40
26707;DHT22;14319;49.422;10.934;2023-02-01T14:30:14;5.70;78.70